Moses Lake, WA

2:04 PM PST on December 27, 2014 (GMT -0800)
www.mlrcm.org | Change Station
CLOSE
Current Station
Personal Weather Station
Location: Moses Lake, WA
Elevation: 1158 ft
Nearby Weather Stations

Elev 1158 ft 47.07 °N, 119.26 °W | Updated 27 days ago

Partly Cloudy
Partly Cloudy
41 °F
Feels Like 41 °F
N
11
Wind Variable Wind from SW
Gusts 12 mph

Today
High -- | Low -- °F
--% Chance of Precip.
Yesterday
High -- | Low -- °F
Precip. -- in
7:42 AM 4:14 PM
Waxing Crescent, 40% visible
Pressure 30.01 in
Visibility 10.0 miles
Clouds Few 6500 ft
Dew Point 32 °F
Humidity 69%
Rainfall 0.00 in
Snow Depth Not available.
UV 1 out of 12
Pollen .50 out of 12
Air Quality Not available.
Flu Activity Not available.
METAR KMWH 272152Z 17009KT 10SM FEW065 04/01 A2997 RMK AO2 SLP160 T00390011

More Conditions Fewer Conditions

Pressure 30.01 in
Visibility 10.0 miles
Clouds Few 6500 ft
Dew Point 32 °F
Humidity 69%
Rainfall 0.00 in
Snow Depth Not available.
UV 1 out of 12
Pollen .50 out of 12
Air Quality Not available.
Flu Activity Not available.
METAR KMWH 272152Z 17009KT 10SM FEW065 04/01 A2997 RMK AO2 SLP160 T00390011

More Conditions Fewer Conditions

10-Day Weather Forecast

Almanac

Astronomy

Dec. 27, 2014 Rise Set
Actual Time
Civil Twilight
Nautical Twilight
Astronomical Twilight
Moon
Length of Visible Light
Length of Day
Tomorrow will be .
, % of the Moon is Illuminated

Today's Extremes

State Highs State Lows

Community

WunderPhotos

Upload Photos

1,781,088 photos uploaded!

WunderBlogs® & News

Nearby

Air Quality

  Air Quality AQ Index Pollutant
Not available.

Snow Depth

Station Depth Elevation

Earthquake Activity

City Distance Mag. Time & Date
Minimum magnitude displayed is 2.5.

Coastal Water Temperatures

Place Temperature

Nearby Weather Stations